createdAt,value
2022-10-30T00:00:55.192Z,0.00
2022-10-30T00:05:55.042Z,0.00
2022-10-30T00:10:56.097Z,0.00
2022-10-30T00:15:56.027Z,0.00
2022-10-30T00:20:55.033Z,0.00
2022-10-30T00:25:54.813Z,0.00
2022-10-30T00:30:54.768Z,0.00
2022-10-30T00:35:54.700Z,0.00
2022-10-30T00:40:54.639Z,0.00
2022-10-30T00:45:54.605Z,0.00
2022-10-30T00:50:54.579Z,0.00
2022-10-30T00:55:54.544Z,0.00
2022-10-30T01:00:54.561Z,0.00
2022-10-30T01:05:55.442Z,0.00
2022-10-30T01:10:55.411Z,0.00
2022-10-30T01:15:54.291Z,0.00
2022-10-30T01:20:55.255Z,0.00
2022-10-30T01:25:57.544Z,0.00
2022-10-30T01:30:54.117Z,0.00
2022-10-30T01:35:54.056Z,0.00
2022-10-30T01:40:54.009Z,0.00
2022-10-30T01:45:53.946Z,0.00
2022-10-30T01:50:53.902Z,0.00
2022-10-30T01:55:53.914Z,0.00
2022-10-30T02:00:53.964Z,0.00
2022-10-30T02:05:53.917Z,0.00
2022-10-30T02:10:53.846Z,0.00
2022-10-30T02:15:55.754Z,0.00
2022-10-30T02:20:53.635Z,0.00
2022-10-30T02:25:53.542Z,0.00
2022-10-30T02:30:53.486Z,0.00
2022-10-30T02:35:53.418Z,0.00
2022-10-30T02:40:53.476Z,0.00
2022-10-30T02:45:53.445Z,0.00
2022-10-30T02:50:54.353Z,0.00
2022-10-30T02:55:54.273Z,0.00
2022-10-30T03:00:53.296Z,0.00
2022-10-30T03:05:53.112Z,0.00
2022-10-30T03:10:53.055Z,0.00
2022-10-30T03:15:52.995Z,0.00
2022-10-30T03:20:52.914Z,0.00
2022-10-30T03:25:52.876Z,0.00
2022-10-30T03:30:52.816Z,0.00
2022-10-30T03:35:52.753Z,0.00
2022-10-30T03:40:52.723Z,0.00
2022-10-30T03:45:52.645Z,0.00
2022-10-30T03:50:52.594Z,0.00
2022-10-30T03:55:52.552Z,0.00
2022-10-30T04:00:52.505Z,0.00
2022-10-30T04:05:53.466Z,0.00
2022-10-30T04:10:52.559Z,0.00
2022-10-30T04:15:55.942Z,0.00
2022-10-30T04:20:53.405Z,0.00
2022-10-30T04:25:59.184Z,0.00
2022-10-30T04:30:52.192Z,0.00
2022-10-30T04:35:52.091Z,0.00
2022-10-30T04:40:52.055Z,0.00
2022-10-30T04:45:51.999Z,0.00
2022-10-30T04:50:51.910Z,0.00
2022-10-30T04:55:51.872Z,0.00
2022-10-30T05:00:56.715Z,0.00
2022-10-30T05:05:52.771Z,0.00
2022-10-30T05:10:51.718Z,0.00
2022-10-30T05:15:51.677Z,0.00
2022-10-30T05:21:02.505Z,0.00
2022-10-30T05:25:51.634Z,0.00
2022-10-30T05:30:51.642Z,0.00
2022-10-30T05:35:51.471Z,0.00
2022-10-30T05:40:51.393Z,0.00
2022-10-30T05:45:51.348Z,0.00
2022-10-30T05:50:51.291Z,4.00
2022-10-30T05:55:51.253Z,8.00
2022-10-30T06:00:52.303Z,24.00
2022-10-30T06:05:51.128Z,48.00
2022-10-30T06:10:51.250Z,108.00
2022-10-30T06:15:51.200Z,188.00
2022-10-30T06:20:51.038Z,308.00
2022-10-30T06:25:57.777Z,448.00
2022-10-30T06:30:51.937Z,640.00
2022-10-30T06:35:50.795Z,832.00
2022-10-30T06:40:50.924Z,1012.00
2022-10-30T06:45:52.195Z,1224.00
2022-10-30T06:50:50.717Z,1520.00
2022-10-30T06:55:52.935Z,2008.00
2022-10-30T07:00:51.570Z,2496.00
2022-10-30T07:05:50.478Z,2812.00
2022-10-30T07:10:50.445Z,3148.00
2022-10-30T07:15:50.373Z,3428.00
2022-10-30T07:20:50.314Z,3716.00
2022-10-30T07:25:50.262Z,3956.00
2022-10-30T07:30:52.217Z,4060.00
2022-10-30T07:35:50.224Z,4240.00
2022-10-30T07:40:50.181Z,4376.00
2022-10-30T07:45:50.026Z,4280.00
2022-10-30T07:50:49.972Z,4476.00
2022-10-30T07:55:49.910Z,5736.00
2022-10-30T08:00:49.860Z,6280.00
2022-10-30T08:05:49.807Z,6408.00
2022-10-30T08:10:49.913Z,9508.00
2022-10-30T08:15:54.228Z,10060.00
2022-10-30T08:20:49.727Z,12280.00
2022-10-30T08:25:49.603Z,13756.00
2022-10-30T08:30:49.542Z,13436.00
2022-10-30T08:35:49.461Z,14412.00
2022-10-30T08:40:49.553Z,13720.00
2022-10-30T08:45:49.506Z,13920.00
2022-10-30T08:50:49.319Z,14260.00
2022-10-30T08:55:49.462Z,16768.00
2022-10-30T09:00:49.213Z,13936.00
2022-10-30T09:05:49.164Z,14544.00
2022-10-30T09:10:49.102Z,14108.00
2022-10-30T09:15:50.153Z,15552.00
2022-10-30T09:20:49.059Z,14140.00
2022-10-30T09:25:48.939Z,14076.00
2022-10-30T09:30:48.884Z,13092.00
2022-10-30T09:35:48.819Z,13280.00
2022-10-30T09:40:48.920Z,14412.00
2022-10-30T09:45:48.859Z,16064.00
2022-10-30T09:50:48.802Z,17984.00
2022-10-30T09:55:50.799Z,17120.00
2022-10-30T10:00:48.631Z,16608.00
2022-10-30T10:05:48.507Z,14272.00
2022-10-30T10:10:48.554Z,14212.00
2022-10-30T10:15:48.614Z,13760.00
2022-10-30T10:20:48.326Z,13852.00
2022-10-30T10:25:48.375Z,12852.00
2022-10-30T10:30:48.244Z,12600.00
2022-10-30T10:35:48.177Z,13300.00
2022-10-30T10:40:48.202Z,13408.00
2022-10-30T10:45:48.143Z,13176.00
2022-10-30T10:50:48.182Z,13704.00
2022-10-30T10:55:48.102Z,13416.00
2022-10-30T11:00:47.912Z,14060.00
2022-10-30T11:05:47.879Z,13032.00
2022-10-30T11:10:48.038Z,13236.00
2022-10-30T11:15:47.930Z,13092.00
2022-10-30T11:20:47.740Z,12844.00
2022-10-30T11:25:47.674Z,13636.00
2022-10-30T11:30:47.607Z,14268.00
2022-10-30T11:35:47.558Z,13640.00
2022-10-30T11:40:47.613Z,13724.00
2022-10-30T11:45:47.491Z,11816.00
2022-10-30T11:50:47.416Z,12092.00
2022-10-30T11:55:47.346Z,12272.00
2022-10-30T12:00:47.322Z,10336.00
2022-10-30T12:05:50.264Z,10488.00
2022-10-30T12:10:47.189Z,10828.00
2022-10-30T12:15:47.145Z,11008.00
2022-10-30T12:20:47.095Z,10684.00
2022-10-30T12:25:47.130Z,10408.00
2022-10-30T12:30:48.016Z,10516.00
2022-10-30T12:35:46.929Z,10652.00
2022-10-30T12:40:46.872Z,10804.00
2022-10-30T12:45:46.810Z,10992.00
2022-10-30T12:50:46.741Z,11392.00
2022-10-30T12:55:46.785Z,11832.00
2022-10-30T13:00:46.654Z,11904.00
2022-10-30T13:05:46.615Z,11920.00
2022-10-30T13:10:46.537Z,12052.00
2022-10-30T13:15:46.547Z,12284.00
2022-10-30T13:20:46.487Z,12320.00
2022-10-30T13:25:47.436Z,11844.00
2022-10-30T13:30:46.346Z,11116.00
2022-10-30T13:35:46.249Z,10612.00
2022-10-30T13:40:46.225Z,10360.00
2022-10-30T13:45:46.150Z,10148.00
2022-10-30T13:50:46.221Z,9944.00
2022-10-30T13:55:46.160Z,9384.00
2022-10-30T14:00:46.098Z,8876.00
2022-10-30T14:05:45.921Z,8852.00
2022-10-30T14:10:45.893Z,9148.00
2022-10-30T14:15:45.831Z,9276.00
2022-10-30T14:20:45.772Z,8936.00
2022-10-30T14:25:45.714Z,8436.00
2022-10-30T14:30:45.686Z,7632.00
2022-10-30T14:35:45.678Z,6992.00
2022-10-30T14:40:45.619Z,6308.00
2022-10-30T14:45:45.545Z,5796.00
2022-10-30T14:50:45.446Z,5252.00
2022-10-30T14:55:45.440Z,4992.00
2022-10-30T15:00:45.360Z,4748.00
2022-10-30T15:05:45.368Z,4180.00
2022-10-30T15:10:45.247Z,3596.00
2022-10-30T15:15:45.192Z,3088.00
2022-10-30T15:20:45.238Z,2740.00
2022-10-30T15:25:45.088Z,2604.00
2022-10-30T15:30:45.776Z,2456.00
2022-10-30T15:35:45.063Z,2288.00
2022-10-30T15:40:45.234Z,2044.00
2022-10-30T15:45:44.851Z,1628.00
2022-10-30T15:50:44.806Z,1192.00
2022-10-30T15:55:44.835Z,892.00
2022-10-30T16:00:44.703Z,644.00
2022-10-30T16:05:44.806Z,396.00
2022-10-30T16:10:44.730Z,212.00
2022-10-30T16:15:44.671Z,128.00
2022-10-30T16:20:44.483Z,68.00
2022-10-30T16:25:47.197Z,32.00
2022-10-30T16:30:44.374Z,12.00
2022-10-30T16:35:47.437Z,4.00
2022-10-30T16:40:45.514Z,4.00
2022-10-30T16:45:44.208Z,0.00
2022-10-30T16:50:44.276Z,0.00
2022-10-30T16:55:44.094Z,0.00
2022-10-30T17:00:44.154Z,0.00
2022-10-30T17:05:43.988Z,0.00
2022-10-30T17:10:43.924Z,0.00
2022-10-30T17:15:43.874Z,0.00
2022-10-30T17:20:43.895Z,0.00
2022-10-30T17:25:43.935Z,0.00
2022-10-30T17:30:43.878Z,0.00
2022-10-30T17:35:43.942Z,0.00
2022-10-30T17:40:43.753Z,0.00
2022-10-30T17:45:44.726Z,0.00
2022-10-30T17:50:43.516Z,0.00
2022-10-30T17:55:43.469Z,0.00
2022-10-30T18:00:43.433Z,0.00
2022-10-30T18:05:43.357Z,0.00
2022-10-30T18:10:43.283Z,0.00
2022-10-30T18:15:43.265Z,0.00
2022-10-30T18:20:43.184Z,0.00
2022-10-30T18:25:43.199Z,0.00
2022-10-30T18:30:43.065Z,0.00
2022-10-30T18:35:43.033Z,0.00
2022-10-30T18:40:42.974Z,0.00
2022-10-30T18:45:42.996Z,0.00
2022-10-30T18:50:42.935Z,0.00
2022-10-30T18:55:42.970Z,0.00
2022-10-30T19:01:09.808Z,0.00
2022-10-30T19:05:43.723Z,0.00
2022-10-30T19:10:42.686Z,0.00
2022-10-30T19:15:42.597Z,0.00
2022-10-30T19:21:04.480Z,0.00
2022-10-30T19:25:43.472Z,0.00
2022-10-30T19:30:42.473Z,0.00
2022-10-30T19:35:43.237Z,0.00
2022-10-30T19:40:42.384Z,0.00
2022-10-30T19:45:42.246Z,0.00
2022-10-30T19:50:43.264Z,0.00
2022-10-30T19:55:42.184Z,0.00
2022-10-30T20:00:42.134Z,0.00
2022-10-30T20:05:42.070Z,0.00
2022-10-30T20:10:42.099Z,0.00
2022-10-30T20:15:43.017Z,0.00
2022-10-30T20:20:43.997Z,0.00
2022-10-30T20:25:41.820Z,0.00
2022-10-30T20:30:41.766Z,0.00
2022-10-30T20:35:41.853Z,0.00
2022-10-30T20:40:41.644Z,0.00
2022-10-30T20:45:41.592Z,0.00
2022-10-30T20:50:41.686Z,0.00
2022-10-30T20:55:41.673Z,0.00
2022-10-30T21:00:42.474Z,0.00
2022-10-30T21:05:44.181Z,0.00
2022-10-30T21:10:41.326Z,0.00
2022-10-30T21:15:41.395Z,0.00
2022-10-30T21:20:41.364Z,0.00
2022-10-30T21:25:41.174Z,0.00
2022-10-30T21:30:41.305Z,0.00
2022-10-30T21:35:41.246Z,0.00
2022-10-30T21:40:41.035Z,0.00
2022-10-30T21:45:40.931Z,0.00
2022-10-30T21:50:40.883Z,0.00
2022-10-30T21:55:40.911Z,0.00
2022-10-30T22:00:40.845Z,0.00
2022-10-30T22:05:40.735Z,0.00
2022-10-30T22:10:40.660Z,0.00
2022-10-30T22:15:40.623Z,0.00
2022-10-30T22:20:40.688Z,0.00
2022-10-30T22:25:40.500Z,0.00
2022-10-30T22:30:40.568Z,0.00
2022-10-30T22:35:40.390Z,0.00
2022-10-30T22:40:40.463Z,0.00
2022-10-30T22:45:40.290Z,0.00
2022-10-30T22:50:40.245Z,0.00
2022-10-30T22:55:40.169Z,0.00
2022-10-30T23:00:40.124Z,0.00
2022-10-30T23:05:40.090Z,0.00
2022-10-30T23:10:40.012Z,0.00
2022-10-30T23:15:39.964Z,0.00
2022-10-30T23:20:39.897Z,0.00
2022-10-30T23:25:39.907Z,0.00
2022-10-30T23:30:39.798Z,0.00
2022-10-30T23:35:39.735Z,0.00
2022-10-30T23:40:39.700Z,0.00
2022-10-30T23:45:39.645Z,0.00
2022-10-30T23:50:39.585Z,0.00
2022-10-30T23:55:39.526Z,0.00
